Time;durP1;ratioP1;P1;durP2;ratioP2;P2;SDS_P1;SDS_P2;PMS_P1;PMS_P2;Temp;Humidity;BMP_temperature;BMP_pressure;BME280_temperature;BME280_humidity;BME280_pressure;Samples;Min_cycle;Max_cycle;Signal;HPM_P1;HPM_P2
2023/11/05 00:00:05;;;;;;;1.10;0.90;;;18.30;55.90;;;;;;5013832;28;20448;-77
2023/11/05 00:02:33;;;;;;;1.10;1.10;;;18.30;55.70;;;;;;5007778;28;20470;-77
2023/11/05 00:05:03;;;;;;;0.87;0.87;;;18.30;56.00;;;;;;5012647;28;20448;-78
2023/11/05 00:07:31;;;;;;;2.00;1.00;;;18.30;55.80;;;;;;5003587;28;20469;-77
2023/11/05 00:09:59;;;;;;;1.83;0.90;;;18.30;56.00;;;;;;5003291;28;20822;-77
2023/11/05 00:12:27;;;;;;;1.03;1.03;;;18.30;56.10;;;;;;5012693;28;20480;-77
2023/11/05 00:14:55;;;;;;;1.10;1.00;;;18.30;56.10;;;;;;5004089;28;20478;-78
2023/11/05 00:17:23;;;;;;;0.80;0.80;;;18.30;56.10;;;;;;5006384;28;20498;-78
2023/11/05 00:19:51;;;;;;;1.87;1.10;;;18.30;56.20;;;;;;5012067;28;20449;-77
2023/11/05 00:22:21;;;;;;;1.80;0.97;;;18.30;56.20;;;;;;5016545;28;20476;-78
2023/11/05 00:24:50;;;;;;;1.30;1.07;;;18.30;56.40;;;;;;5017382;28;20511;-78
2023/11/05 00:27:18;;;;;;;2.20;0.97;;;18.30;56.20;;;;;;5011377;28;20445;-78
2023/11/05 00:29:46;;;;;;;1.53;1.43;;;18.30;56.20;;;;;;5010900;28;20510;-78
2023/11/05 00:32:19;;;;;;;1.30;1.20;;;18.30;56.40;;;;;;5007241;28;20467;-78
2023/11/05 00:34:47;;;;;;;1.03;1.03;;;18.30;56.40;;;;;;5016857;28;20448;-78
2023/11/05 00:37:16;;;;;;;1.20;1.00;;;18.30;56.50;;;;;;5010189;28;20479;-78
2023/11/05 00:39:56;;;;;;;1.20;1.10;;;18.30;56.60;;;;;;5022234;28;20471;-79
2023/11/05 00:42:34;;;;;;;1.00;1.00;;;18.30;56.70;;;;;;5023939;28;20499;-79
2023/11/05 00:45:02;;;;;;;1.07;0.97;;;18.30;56.70;;;;;;5022832;28;20457;-78
2023/11/05 00:47:30;;;;;;;0.83;0.83;;;18.30;56.70;;;;;;5023551;28;20503;-79
2023/11/05 00:49:59;;;;;;;1.13;0.90;;;18.30;56.60;;;;;;5013924;28;20543;-79
2023/11/05 00:52:28;;;;;;;2.30;1.10;;;18.30;56.60;;;;;;5013752;28;20472;-78
2023/11/05 00:54:57;;;;;;;1.47;0.97;;;18.30;56.60;;;;;;5011200;28;20456;-79
2023/11/05 00:57:26;;;;;;;1.87;1.07;;;18.30;56.50;;;;;;5004579;28;20511;-79
2023/11/05 00:59:54;;;;;;;1.30;1.20;;;18.30;56.80;;;;;;5018147;28;20441;-78
2023/11/05 01:02:21;;;;;;;1.20;1.00;;;18.20;56.70;;;;;;5012881;28;20573;-81
2023/11/05 01:04:50;;;;;;;1.00;0.90;;;18.30;56.80;;;;;;5020921;28;20453;-78
2023/11/05 01:07:18;;;;;;;1.20;1.10;;;18.30;56.90;;;;;;5017296;28;20548;-79
2023/11/05 01:09:46;;;;;;;1.00;1.00;;;18.30;56.80;;;;;;5017409;28;20476;-79
2023/11/05 01:12:15;;;;;;;1.10;0.93;;;18.30;56.90;;;;;;5020943;28;20480;-79
2023/11/05 01:14:43;;;;;;;1.30;1.00;;;18.30;56.80;;;;;;5021501;28;20512;-79
2023/11/05 01:17:12;;;;;;;2.30;1.10;;;18.30;56.90;;;;;;5021514;28;20460;-79
2023/11/05 01:19:40;;;;;;;1.00;1.00;;;18.30;56.90;;;;;;5020817;28;20440;-79
2023/11/05 01:22:08;;;;;;;0.93;0.93;;;18.30;57.10;;;;;;5018769;28;20536;-78
2023/11/05 01:24:38;;;;;;;0.93;0.93;;;18.30;56.80;;;;;;5016681;28;20452;-78
2023/11/05 01:27:07;;;;;;;0.80;0.80;;;18.30;57.00;;;;;;5013095;28;20440;-78
2023/11/05 01:29:36;;;;;;;1.33;1.00;;;18.30;57.20;;;;;;5014434;28;20847;-77
2023/11/05 01:32:06;;;;;;;0.90;0.90;;;18.30;57.20;;;;;;5014117;28;21028;-78
2023/11/05 01:34:34;;;;;;;2.90;1.10;;;18.30;57.20;;;;;;5012714;28;20443;-78
2023/11/05 01:37:02;;;;;;;2.00;1.27;;;18.30;57.20;;;;;;5022226;28;20452;-79
2023/11/05 01:39:30;;;;;;;1.17;1.07;;;18.30;57.00;;;;;;5026388;28;20502;-79
2023/11/05 01:41:58;;;;;;;2.93;0.83;;;18.30;57.30;;;;;;5038006;23;20520;-73
2023/11/05 01:44:27;;;;;;;1.10;1.00;;;18.30;57.30;;;;;;4979035;28;20521;-73
2023/11/05 01:46:56;;;;;;;1.20;1.10;;;18.30;57.20;;;;;;4990985;28;20541;-73
2023/11/05 01:49:26;;;;;;;1.20;1.10;;;18.30;57.40;;;;;;4983832;28;20473;-73
2023/11/05 01:51:54;;;;;;;8.03;1.17;;;18.30;57.40;;;;;;4981461;28;20912;-74
2023/11/05 01:54:22;;;;;;;1.00;1.00;;;18.30;57.40;;;;;;5008865;28;20506;-73
2023/11/05 01:56:50;;;;;;;1.33;1.23;;;18.30;57.60;;;;;;5010469;28;20484;-74
2023/11/05 01:59:18;;;;;;;1.67;0.90;;;18.30;57.30;;;;;;5012555;28;20432;-73
2023/11/05 02:01:47;;;;;;;1.20;1.10;;;18.30;57.60;;;;;;5010673;28;20500;-73
2023/11/05 02:04:16;;;;;;;1.03;0.97;;;18.30;57.50;;;;;;5015591;28;20467;-73
2023/11/05 02:06:44;;;;;;;0.90;0.90;;;18.30;57.50;;;;;;5006365;28;20444;-73
2023/11/05 02:09:12;;;;;;;1.03;1.03;;;18.30;57.60;;;;;;5012771;28;20483;-74
2023/11/05 02:11:40;;;;;;;1.10;1.00;;;18.30;57.60;;;;;;5015178;28;21038;-73
2023/11/05 02:14:12;;;;;;;4.17;1.40;;;18.30;57.40;;;;;;5011993;28;20542;-74
2023/11/05 02:16:40;;;;;;;1.13;1.00;;;18.30;57.50;;;;;;5003125;28;20496;-74
2023/11/05 02:19:08;;;;;;;1.07;1.00;;;18.30;57.60;;;;;;5010354;28;20448;-74
2023/11/05 02:21:42;;;;;;;0.90;0.90;;;18.30;57.60;;;;;;5009965;28;20464;-73
2023/11/05 02:24:12;;;;;;;1.70;0.97;;;18.40;57.70;;;;;;5009790;28;20468;-73
2023/11/05 02:26:39;;;;;;;1.37;1.10;;;18.30;57.50;;;;;;5013247;28;20474;-73
2023/11/05 02:29:07;;;;;;;1.03;1.00;;;18.30;57.70;;;;;;5012976;28;20563;-74
2023/11/05 02:31:35;;;;;;;1.20;1.10;;;18.30;57.70;;;;;;4998920;28;20555;-74
2023/11/05 02:34:03;;;;;;;1.20;1.07;;;18.40;57.90;;;;;;5007930;28;20463;-74
2023/11/05 02:36:32;;;;;;;3.17;1.37;;;18.40;57.80;;;;;;5006872;28;20536;-74
2023/11/05 02:38:59;;;;;;;1.30;1.20;;;18.30;57.70;;;;;;5006975;28;20529;-74
2023/11/05 02:41:29;;;;;;;2.93;1.80;;;18.30;57.90;;;;;;5012908;28;20459;-73
2023/11/05 02:43:57;;;;;;;1.83;1.73;;;18.30;57.80;;;;;;5008712;28;20449;-73
2023/11/05 02:46:25;;;;;;;2.50;1.83;;;18.40;58.00;;;;;;5004077;28;20553;-73
2023/11/05 02:48:53;;;;;;;2.10;2.00;;;18.40;58.10;;;;;;5013295;28;20856;-73
2023/11/05 02:51:21;;;;;;;1.90;1.80;;;18.40;58.00;;;;;;5014805;28;20437;-74
2023/11/05 02:53:49;;;;;;;2.50;2.30;;;18.40;57.90;;;;;;5009568;28;20515;-73
2023/11/05 02:56:17;;;;;;;3.13;2.90;;;18.40;58.20;;;;;;4997388;28;20525;-72
2023/11/05 02:58:47;;;;;;;3.43;3.10;;;18.40;58.00;;;;;;5007833;28;20473;-72
2023/11/05 03:01:22;;;;;;;3.37;3.03;;;18.40;58.00;;;;;;5004391;28;20484;-73
2023/11/05 03:03:50;;;;;;;3.70;3.33;;;18.40;58.10;;;;;;5010392;28;20436;-73
2023/11/05 03:06:19;;;;;;;5.03;3.40;;;18.40;58.20;;;;;;5002947;28;20484;-73
2023/11/05 03:08:47;;;;;;;5.13;3.47;;;18.40;58.20;;;;;;5007666;28;20437;-73
2023/11/05 03:11:15;;;;;;;4.90;3.00;;;18.40;58.20;;;;;;5015328;28;20444;-74
2023/11/05 03:13:43;;;;;;;4.10;3.70;;;18.40;58.10;;;;;;5009239;28;20528;-73
2023/11/05 03:16:13;;;;;;;6.17;3.93;;;18.40;58.20;;;;;;5012864;28;20440;-74
2023/11/05 03:18:41;;;;;;;4.10;3.60;;;18.40;58.10;;;;;;5005752;28;20449;-74
2023/11/05 03:21:13;;;;;;;4.87;3.77;;;18.40;58.20;;;;;;5010358;28;20487;-74
2023/11/05 03:23:42;;;;;;;3.60;3.23;;;18.40;58.10;;;;;;5008414;28;20536;-73
2023/11/05 03:26:10;;;;;;;4.60;3.53;;;18.40;58.10;;;;;;5000845;28;20524;-73
2023/11/05 03:28:38;;;;;;;6.13;4.23;;;18.40;58.30;;;;;;5009240;28;20459;-74
2023/11/05 03:31:07;;;;;;;4.63;3.70;;;18.40;58.20;;;;;;5005336;28;20480;-74
2023/11/05 03:33:36;;;;;;;5.27;4.10;;;18.40;58.30;;;;;;5008083;28;20475;-74
2023/11/05 03:36:05;;;;;;;4.43;3.53;;;18.30;58.30;;;;;;5000006;28;20457;-74
2023/11/05 03:38:32;;;;;;;4.93;3.47;;;18.40;58.40;;;;;;5002703;28;20579;-73
2023/11/05 03:41:00;;;;;;;5.83;3.93;;;18.40;58.30;;;;;;5004730;28;20547;-73
2023/11/05 03:43:28;;;;;;;3.90;3.50;;;18.40;58.40;;;;;;5003638;28;20514;-73
2023/11/05 03:45:56;;;;;;;6.00;3.73;;;18.40;58.30;;;;;;5011587;28;20478;-73
2023/11/05 03:48:24;;;;;;;4.27;3.87;;;18.30;58.40;;;;;;5011174;28;20475;-73
2023/11/05 03:50:54;;;;;;;3.93;3.63;;;18.40;58.40;;;;;;5014630;28;20479;-72
2023/11/05 03:53:22;;;;;;;5.57;3.50;;;18.40;58.40;;;;;;5011659;28;20519;-72
2023/11/05 03:55:50;;;;;;;3.97;3.43;;;18.30;58.30;;;;;;5008639;28;20444;-73
2023/11/05 03:58:18;;;;;;;7.30;3.80;;;18.30;58.40;;;;;;5015503;28;20448;-73
2023/11/05 04:00:46;;;;;;;3.90;3.30;;;18.40;58.50;;;;;;5010356;28;20437;-73
2023/11/05 04:03:14;;;;;;;5.97;3.63;;;18.40;58.40;;;;;;5008892;28;20479;-73
2023/11/05 04:05:42;;;;;;;6.30;3.77;;;18.40;58.60;;;;;;5010198;28;20479;-73
2023/11/05 04:08:11;;;;;;;4.77;3.13;;;18.40;58.50;;;;;;4999663;28;20452;-73
2023/11/05 04:10:39;;;;;;;4.30;3.33;;;18.40;58.50;;;;;;5004693;28;20499;-73
2023/11/05 04:13:07;;;;;;;4.17;3.50;;;18.40;58.40;;;;;;4998240;28;20476;-73
2023/11/05 04:15:36;;;;;;;3.87;3.47;;;18.40;58.50;;;;;;5006251;28;20456;-73
2023/11/05 04:18:04;;;;;;;3.80;3.33;;;18.30;59.10;;;;;;5003367;28;20452;-73
2023/11/05 04:20:32;;;;;;;3.70;3.10;;;18.30;58.50;;;;;;5010366;28;20503;-73
2023/11/05 04:23:00;;;;;;;3.50;3.20;;;18.30;58.40;;;;;;5006248;28;20549;-74
2023/11/05 04:25:30;;;;;;;3.20;2.90;;;18.30;58.40;;;;;;5000312;28;20441;-73
2023/11/05 04:27:57;;;;;;;4.10;3.07;;;18.30;58.50;;;;;;5018981;28;20448;-73
2023/11/05 04:30:25;;;;;;;3.80;2.90;;;18.40;58.50;;;;;;5010318;28;20476;-74
2023/11/05 04:32:53;;;;;;;3.03;2.83;;;18.40;58.50;;;;;;5006492;28;20468;-74
2023/11/05 04:35:21;;;;;;;5.60;2.63;;;18.40;58.40;;;;;;5007492;28;20468;-74
2023/11/05 04:37:49;;;;;;;3.70;2.27;;;18.40;58.30;;;;;;5007059;28;20540;-73
2023/11/05 04:40:17;;;;;;;3.33;2.20;;;18.30;58.50;;;;;;5002126;28;20488;-74
2023/11/05 04:42:46;;;;;;;7.07;2.67;;;18.40;58.50;;;;;;5013852;28;20512;-73
2023/11/05 04:45:15;;;;;;;3.30;2.20;;;18.30;58.50;;;;;;5007827;28;20455;-74
2023/11/05 04:47:42;;;;;;;2.70;2.50;;;18.30;58.30;;;;;;5006726;28;20445;-73
2023/11/05 04:50:11;;;;;;;2.73;2.53;;;18.30;58.60;;;;;;5007473;28;20467;-73
2023/11/05 04:52:39;;;;;;;4.50;2.60;;;18.30;58.50;;;;;;5013988;28;20483;-74
2023/11/05 04:55:07;;;;;;;3.63;2.77;;;18.30;58.40;;;;;;5001422;28;20436;-74
2023/11/05 04:57:36;;;;;;;2.50;2.00;;;18.30;58.30;;;;;;5014460;28;20440;-74
2023/11/05 05:00:08;;;;;;;2.73;2.50;;;18.30;58.60;;;;;;5016008;28;20472;-73
2023/11/05 05:02:36;;;;;;;3.67;2.70;;;18.30;58.50;;;;;;5000610;28;20496;-74
2023/11/05 05:05:05;;;;;;;3.70;2.30;;;18.30;58.60;;;;;;5014190;28;20471;-73
2023/11/05 05:07:33;;;;;;;3.00;2.00;;;18.30;58.40;;;;;;5014481;28;20527;-74
2023/11/05 05:10:02;;;;;;;2.70;2.50;;;18.30;58.60;;;;;;5014624;28;20448;-73
2023/11/05 05:12:31;;;;;;;2.57;2.37;;;18.30;58.60;;;;;;5009183;28;20506;-74
2023/11/05 05:15:03;;;;;;;4.37;2.40;;;18.30;58.60;;;;;;5006881;28;20522;-73
2023/11/05 05:17:32;;;;;;;3.77;2.53;;;18.30;58.50;;;;;;5000951;28;20552;-73
2023/11/05 05:20:00;;;;;;;2.87;2.43;;;18.30;58.70;;;;;;5013966;28;20447;-73
2023/11/05 05:22:28;;;;;;;3.47;2.83;;;18.30;58.70;;;;;;5009418;28;20494;-74
2023/11/05 05:24:56;;;;;;;2.80;2.40;;;18.30;58.60;;;;;;5012835;28;20448;-74
2023/11/05 05:27:24;;;;;;;2.83;2.00;;;18.40;58.60;;;;;;5014376;28;20444;-74
2023/11/05 05:29:52;;;;;;;3.20;1.63;;;18.30;58.70;;;;;;5014169;28;20472;-74
2023/11/05 05:32:20;;;;;;;2.70;2.30;;;18.30;58.80;;;;;;5008966;28;20482;-74
2023/11/05 05:34:49;;;;;;;3.20;2.40;;;18.30;58.70;;;;;;5010460;28;20502;-74
2023/11/05 05:37:18;;;;;;;2.30;2.10;;;18.30;58.80;;;;;;5003952;28;20491;-74
2023/11/05 05:39:47;;;;;;;2.00;1.90;;;18.40;58.70;;;;;;5010708;28;20429;-74
2023/11/05 05:42:15;;;;;;;2.00;1.87;;;18.30;58.80;;;;;;5000775;28;20533;-74
2023/11/05 05:44:43;;;;;;;1.87;1.77;;;18.40;58.80;;;;;;5008430;28;20440;-74
2023/11/05 05:47:11;;;;;;;2.37;2.17;;;18.30;58.90;;;;;;5007979;28;20448;-74
2023/11/05 05:49:39;;;;;;;2.47;1.80;;;18.30;58.90;;;;;;5004754;28;20519;-74
2023/11/05 05:52:08;;;;;;;2.03;1.83;;;18.30;58.70;;;;;;5004075;28;20487;-74
2023/11/05 05:54:36;;;;;;;3.50;2.10;;;18.30;58.90;;;;;;5007180;28;20470;-74
2023/11/05 05:57:04;;;;;;;3.23;1.80;;;18.30;58.80;;;;;;5009852;28;20544;-74
2023/11/05 05:59:32;;;;;;;1.90;1.73;;;18.30;58.80;;;;;;5006889;28;20539;-75
2023/11/05 06:02:00;;;;;;;4.87;2.20;;;18.30;59.00;;;;;;5002805;28;20468;-74
2023/11/05 06:04:28;;;;;;;3.43;2.07;;;18.30;59.10;;;;;;5005619;28;20453;-74
2023/11/05 06:06:56;;;;;;;1.90;1.80;;;18.30;59.10;;;;;;5003848;28;20453;-74
2023/11/05 06:09:25;;;;;;;3.43;1.90;;;18.30;58.90;;;;;;5005509;28;20524;-73
2023/11/05 06:11:53;;;;;;;2.80;1.87;;;18.30;59.20;;;;;;5011786;28;20484;-74
2023/11/05 06:14:22;;;;;;;4.07;2.30;;;18.30;59.30;;;;;;5012068;28;20544;-74
2023/11/05 06:17:03;;;;;;;2.60;2.10;;;18.30;59.30;;;;;;5012544;28;20436;-74
2023/11/05 06:19:31;;;;;;;3.67;2.00;;;18.30;59.20;;;;;;5006846;28;20535;-73
2023/11/05 06:21:59;;;;;;;1.77;1.67;;;18.30;59.20;;;;;;5009527;28;20531;-73
2023/11/05 06:24:28;;;;;;;3.37;2.17;;;18.30;59.40;;;;;;5004722;28;20506;-73
2023/11/05 06:26:57;;;;;;;1.80;1.70;;;18.30;59.40;;;;;;5017129;28;20483;-74
2023/11/05 06:29:24;;;;;;;1.93;1.83;;;18.30;59.30;;;;;;5007469;28;20440;-73
2023/11/05 06:31:52;;;;;;;2.23;2.03;;;18.30;59.50;;;;;;5009050;28;20480;-73
2023/11/05 06:34:20;;;;;;;3.10;2.10;;;18.30;59.60;;;;;;5016301;28;20541;-74
2023/11/05 06:36:55;;;;;;;2.23;2.03;;;18.30;59.60;;;;;;5011824;28;20448;-74
2023/11/05 06:39:23;;;;;;;2.90;2.10;;;18.30;59.50;;;;;;5012089;28;20440;-74
2023/11/05 06:41:53;;;;;;;3.23;2.23;;;18.30;59.60;;;;;;4963200;28;1516250;-74
2023/11/05 06:44:21;;;;;;;2.00;1.80;;;18.30;59.80;;;;;;5007939;28;20298;-74
2023/11/05 06:46:50;;;;;;;2.97;2.10;;;18.30;59.60;;;;;;5012133;28;20542;-74
2023/11/05 06:49:21;;;;;;;2.37;2.07;;;18.30;59.70;;;;;;5007221;28;20457;-73
2023/11/05 06:51:49;;;;;;;2.40;2.17;;;18.30;59.80;;;;;;5015211;28;20562;-73
2023/11/05 06:54:17;;;;;;;2.10;2.00;;;18.30;59.90;;;;;;5007049;28;20895;-73
2023/11/05 06:56:45;;;;;;;1.97;1.77;;;18.30;59.80;;;;;;5010451;28;20520;-73
2023/11/05 06:59:15;;;;;;;2.37;2.17;;;18.30;60.00;;;;;;5008928;28;20505;-74
2023/11/05 07:01:43;;;;;;;1.97;1.87;;;18.40;60.00;;;;;;5012349;28;20487;-73
2023/11/05 07:04:11;;;;;;;3.23;2.33;;;18.40;60.10;;;;;;5013465;28;20432;-74
2023/11/05 07:06:40;;;;;;;2.93;2.40;;;18.40;60.10;;;;;;5012274;28;20452;-73
2023/11/05 07:09:08;;;;;;;2.73;1.77;;;18.40;60.10;;;;;;5003897;28;20465;-74
2023/11/05 07:11:37;;;;;;;2.30;2.10;;;18.40;60.00;;;;;;5007806;28;20556;-74
2023/11/05 07:14:06;;;;;;;2.03;1.83;;;18.40;60.00;;;;;;4996921;28;20533;-73
2023/11/05 07:16:35;;;;;;;2.53;2.07;;;18.40;60.10;;;;;;5008377;28;20464;-74
2023/11/05 07:19:04;;;;;;;2.20;2.00;;;18.50;60.10;;;;;;5013231;28;20449;-74
2023/11/05 07:21:32;;;;;;;2.30;2.10;;;18.50;60.10;;;;;;5007461;28;20475;-73
2023/11/05 07:24:00;;;;;;;1.90;1.80;;;18.50;60.10;;;;;;5012243;28;20468;-73
2023/11/05 07:26:28;;;;;;;1.73;1.63;;;18.50;59.90;;;;;;5011316;28;20475;-73
2023/11/05 07:28:58;;;;;;;1.97;1.87;;;18.50;60.30;;;;;;5012086;28;20482;-74
2023/11/05 07:31:26;;;;;;;2.37;1.97;;;18.50;60.00;;;;;;5003925;28;20480;-73
2023/11/05 07:33:55;;;;;;;2.63;2.43;;;18.50;60.20;;;;;;5012479;28;20440;-73
2023/11/05 07:36:23;;;;;;;4.17;2.10;;;18.50;60.20;;;;;;5012293;28;20973;-74
2023/11/05 07:38:51;;;;;;;1.90;1.80;;;18.50;60.30;;;;;;5011670;28;20531;-74
2023/11/05 07:41:19;;;;;;;1.80;1.70;;;18.50;60.50;;;;;;5010601;28;20433;-72
2023/11/05 07:43:47;;;;;;;3.40;1.90;;;18.50;60.40;;;;;;5007664;23;20564;-77
2023/11/05 07:46:17;;;;;;;2.80;1.63;;;18.60;60.40;;;;;;4980877;28;20434;-77
2023/11/05 07:48:45;;;;;;;2.93;1.90;;;18.50;60.60;;;;;;4971990;28;20450;-77
2023/11/05 07:51:18;;;;;;;1.73;1.63;;;18.60;60.70;;;;;;4977745;28;20469;-78
2023/11/05 07:53:45;;;;;;;3.10;1.80;;;18.60;60.70;;;;;;4974021;28;20505;-77
2023/11/05 07:56:13;;;;;;;3.47;1.80;;;18.50;60.70;;;;;;4977168;28;20453;-78
2023/11/05 07:58:41;;;;;;;2.53;1.67;;;18.50;60.40;;;;;;4978990;28;20458;-78
2023/11/05 08:01:10;;;;;;;2.23;1.80;;;18.60;60.80;;;;;;4976262;28;20509;-78
2023/11/05 08:03:40;;;;;;;1.70;1.60;;;18.60;60.70;;;;;;4975480;28;20466;-78
2023/11/05 08:06:08;;;;;;;2.00;1.83;;;18.60;60.80;;;;;;4971665;28;20460;-77
2023/11/05 08:08:38;;;;;;;2.00;1.90;;;18.60;60.70;;;;;;4972887;28;20450;-77
2023/11/05 08:11:06;;;;;;;2.27;2.00;;;18.60;60.70;;;;;;4966588;28;20952;-78
2023/11/05 08:13:34;;;;;;;2.20;2.00;;;18.60;60.90;;;;;;4987593;28;20482;-78
2023/11/05 08:16:02;;;;;;;3.07;1.97;;;18.60;60.90;;;;;;4977267;28;20441;-78
2023/11/05 08:18:30;;;;;;;2.63;2.00;;;18.60;60.60;;;;;;4967974;28;20527;-77
2023/11/05 08:20:58;;;;;;;1.80;1.70;;;18.60;60.80;;;;;;4974077;28;20443;-78
2023/11/05 08:23:26;;;;;;;2.00;1.90;;;18.60;60.70;;;;;;4990853;28;20533;-79
2023/11/05 08:25:56;;;;;;;2.70;1.83;;;18.70;60.70;;;;;;4972633;28;20500;-78
2023/11/05 08:28:24;;;;;;;2.80;1.77;;;18.70;60.90;;;;;;4969261;28;20481;-77
2023/11/05 08:30:53;;;;;;;1.73;1.63;;;18.70;60.70;;;;;;4977203;28;20825;-77
2023/11/05 08:33:22;;;;;;;1.90;1.63;;;18.70;60.80;;;;;;4966608;28;20545;-77
2023/11/05 08:35:50;;;;;;;1.87;1.77;;;18.70;60.70;;;;;;4972536;28;20438;-77
2023/11/05 08:38:18;;;;;;;1.70;1.60;;;18.70;60.80;;;;;;4977830;28;20933;-77
2023/11/05 08:40:46;;;;;;;2.30;2.00;;;18.70;61.00;;;;;;4973177;28;20448;-77
2023/11/05 08:43:16;;;;;;;1.83;1.60;;;18.70;60.70;;;;;;4977450;28;20457;-77
2023/11/05 08:45:44;;;;;;;1.63;1.53;;;18.80;60.90;;;;;;4973771;28;20442;-77
2023/11/05 08:48:18;;;;;;;1.70;1.60;;;18.80;60.80;;;;;;4979050;28;20448;-77
2023/11/05 08:50:46;;;;;;;2.07;1.97;;;18.90;60.70;;;;;;4978958;28;20528;-77
2023/11/05 08:53:14;;;;;;;1.70;1.60;;;18.90;60.80;;;;;;4987727;28;20532;-76
2023/11/05 08:55:42;;;;;;;1.70;1.60;;;19.00;60.80;;;;;;4965960;28;20443;-76
2023/11/05 08:58:16;;;;;;;2.90;2.00;;;19.10;60.90;;;;;;4970596;28;20429;-76
2023/11/05 09:00:44;;;;;;;2.30;1.50;;;19.30;60.80;;;;;;4980550;28;20437;-76
2023/11/05 09:03:12;;;;;;;2.00;1.63;;;19.50;61.10;;;;;;4974918;28;20489;-77
2023/11/05 09:05:40;;;;;;;1.50;1.40;;;19.70;60.90;;;;;;4979712;28;20456;-77
2023/11/05 09:08:09;;;;;;;2.13;1.50;;;19.90;60.70;;;;;;4972814;28;20513;-76
2023/11/05 09:10:37;;;;;;;1.53;1.43;;;20.10;60.80;;;;;;4976140;28;20500;-77
2023/11/05 09:13:05;;;;;;;2.10;2.00;;;20.20;60.30;;;;;;4968668;28;20508;-76
2023/11/05 09:15:35;;;;;;;1.20;1.20;;;20.20;60.00;;;;;;4974683;28;20434;-77
2023/11/05 09:18:03;;;;;;;1.77;1.67;;;20.30;60.00;;;;;;4972650;28;20516;-78
2023/11/05 09:20:31;;;;;;;1.80;1.70;;;20.30;59.90;;;;;;4967460;28;20434;-76
2023/11/05 09:23:00;;;;;;;2.27;1.70;;;20.20;59.90;;;;;;4964766;28;20461;-78
2023/11/05 09:25:28;;;;;;;1.80;1.70;;;20.20;59.90;;;;;;4974033;28;20479;-76
2023/11/05 09:27:56;;;;;;;3.73;1.77;;;20.20;60.10;;;;;;4985719;28;20442;-78
2023/11/05 09:30:25;;;;;;;2.13;1.50;;;20.20;60.10;;;;;;4989966;28;20453;-78
2023/11/05 09:32:54;;;;;;;1.83;1.70;;;20.20;60.10;;;;;;4993589;28;20484;-79
2023/11/05 09:35:24;;;;;;;1.90;1.80;;;20.20;60.10;;;;;;4981805;28;20458;-78
2023/11/05 09:37:52;;;;;;;1.83;1.73;;;20.20;60.10;;;;;;4977577;28;20484;-78
2023/11/05 09:40:20;;;;;;;1.93;1.80;;;20.20;60.10;;;;;;4971967;28;20454;-82
2023/11/05 09:43:02;;;;;;;3.20;2.60;;;20.20;60.20;;;;;;4992256;28;20496;-78
2023/11/05 09:45:34;;;;;;;8.30;4.80;;;19.20;63.60;;;;;;4990434;28;20433;-78
2023/11/05 09:48:36;;;;;;;4.80;3.33;;;17.90;65.40;;;;;;4991329;28;20453;-78
2023/11/05 09:51:10;;;;;;;6.80;3.40;;;16.90;68.40;;;;;;4989380;28;20488;-79
2023/11/05 09:53:38;;;;;;;5.70;4.10;;;16.70;70.30;;;;;;4987716;28;20504;-79
2023/11/05 09:56:07;;;;;;;9.97;4.43;;;16.70;72.90;;;;;;4994999;28;20437;-78
2023/11/05 09:58:34;;;;;;;7.87;4.53;;;16.50;75.30;;;;;;4992953;28;20437;-79
2023/11/05 10:01:05;;;;;;;5.03;3.90;;;16.30;74.80;;;;;;4981542;28;20453;-79
2023/11/05 10:03:35;;;;;;;4.20;3.90;;;15.80;77.10;;;;;;4987145;28;20754;-79
2023/11/05 10:06:03;;;;;;;6.23;4.80;;;15.80;79.70;;;;;;4994288;28;20433;-80
2023/11/05 10:08:34;;;;;;;9.00;6.43;;;16.20;78.80;;;;;;4979496;28;20482;-78
2023/11/05 10:11:01;;;;;;;11.33;4.40;;;16.40;80.60;;;;;;4978641;28;20481;-77
2023/11/05 10:13:30;;;;;;;8.70;6.30;;;16.80;77.50;;;;;;4986769;28;20602;-77
2023/11/05 10:15:59;;;;;;;11.20;4.20;;;16.80;78.30;;;;;;4985741;28;20513;-77
2023/11/05 10:18:28;;;;;;;7.27;4.80;;;16.50;76.80;;;;;;4976814;28;21021;-77
2023/11/05 10:20:58;;;;;;;7.40;5.50;;;16.90;79.40;;;;;;4987871;28;20449;-78
2023/11/05 10:23:27;;;;;;;7.17;5.23;;;17.40;78.90;;;;;;4978122;28;20458;-78
2023/11/05 10:25:55;;;;;;;7.20;5.77;;;17.40;76.30;;;;;;4976860;28;20962;-76
2023/11/05 10:28:27;;;;;;;5.20;4.70;;;18.10;80.90;;;;;;4991222;28;20501;-76
2023/11/05 10:30:56;;;;;;;8.10;4.57;;;18.80;76.70;;;;;;4984205;28;20477;-76
2023/11/05 10:33:28;;;;;;;4.77;4.20;;;19.40;73.80;;;;;;4990299;28;20485;-76
2023/11/05 10:35:58;;;;;;;4.63;4.10;;;19.80;71.30;;;;;;4997027;28;20449;-76
2023/11/05 10:38:27;;;;;;;4.97;4.30;;;20.20;69.30;;;;;;4971489;28;20466;-77
2023/11/05 10:40:54;;;;;;;13.00;4.67;;;20.40;67.50;;;;;;4982697;28;20439;-78
2023/11/05 10:43:25;;;;;;;7.40;4.23;;;20.50;66.50;;;;;;4987847;28;20489;-79
2023/11/05 10:45:53;;;;;;;4.20;3.63;;;20.60;65.80;;;;;;4973441;28;20454;-78
2023/11/05 10:48:21;;;;;;;6.17;4.00;;;20.70;65.10;;;;;;4987412;28;20438;-78
2023/11/05 10:50:50;;;;;;;6.70;4.57;;;20.70;65.20;;;;;;4985225;28;20450;-79
2023/11/05 10:53:24;;;;;;;4.10;3.70;;;20.70;64.10;;;;;;4983191;28;20458;-78
2023/11/05 10:55:52;;;;;;;6.00;3.60;;;20.70;63.90;;;;;;4983110;28;20492;-77
2023/11/05 10:58:21;;;;;;;3.63;3.33;;;20.70;63.90;;;;;;4981021;28;20450;-77
2023/11/05 11:00:55;;;;;;;3.90;3.50;;;20.80;63.80;;;;;;4973432;28;20450;-77
2023/11/05 11:03:25;;;;;;;4.23;3.83;;;20.90;63.40;;;;;;4980571;28;20545;-76
2023/11/05 11:06:05;;;;;;;3.70;3.40;;;20.90;63.10;;;;;;4971482;28;20521;-76
2023/11/05 11:08:35;;;;;;;5.27;3.93;;;20.90;62.80;;;;;;4973791;28;20450;-75
2023/11/05 11:11:14;;;;;;;8.43;3.33;;;21.00;63.10;;;;;;4982774;28;20409;-76
2023/11/05 11:13:55;;;;;;;5.70;3.50;;;21.10;62.80;;;;;;4973991;28;20584;-76
2023/11/05 11:16:29;;;;;;;5.47;3.47;;;21.20;62.50;;;;;;4979168;28;20434;-78
2023/11/05 11:18:57;;;;;;;4.07;3.70;;;21.20;62.40;;;;;;4985947;28;20455;-77
2023/11/05 11:21:25;;;;;;;4.53;3.93;;;21.30;62.60;;;;;;4983097;28;20454;-75
2023/11/05 11:23:54;;;;;;;4.57;3.67;;;21.40;62.20;;;;;;4982464;28;20535;-79
2023/11/05 11:26:24;;;;;;;3.53;3.23;;;21.40;61.60;;;;;;4982006;28;20543;-78
2023/11/05 11:28:53;;;;;;;3.90;3.50;;;21.50;62.30;;;;;;4972854;28;20442;-77
2023/11/05 11:31:22;;;;;;;4.57;3.47;;;21.60;61.50;;;;;;4985486;28;20445;-78
2023/11/05 11:33:50;;;;;;;3.90;3.60;;;21.60;61.20;;;;;;4975039;28;20490;-78
2023/11/05 11:36:18;;;;;;;3.90;3.37;;;21.70;61.20;;;;;;4968871;28;20441;-76
2023/11/05 11:38:46;;;;;;;3.40;3.20;;;21.60;61.00;;;;;;4972958;28;20473;-77
2023/11/05 11:41:16;;;;;;;3.90;3.00;;;21.60;60.90;;;;;;4970689;28;20446;-78
2023/11/05 11:43:44;;;;;;;3.40;3.20;;;21.50;61.10;;;;;;4976094;28;20480;-77
2023/11/05 11:46:12;;;;;;;3.50;3.20;;;21.60;61.10;;;;;;4968958;28;20547;-77
2023/11/05 11:48:40;;;;;;;3.17;2.97;;;21.70;61.10;;;;;;4973308;28;20450;-79
2023/11/05 11:51:08;;;;;;;3.07;2.87;;;21.70;61.00;;;;;;4986803;28;20450;-77
2023/11/05 11:53:40;;;;;;;3.73;3.43;;;21.70;61.00;;;;;;4976987;28;20560;-82
2023/11/05 11:56:09;;;;;;;6.93;3.60;;;21.70;61.00;;;;;;4978142;28;20452;-80
2023/11/05 11:58:39;;;;;;;3.80;3.20;;;22.00;62.20;;;;;;4969445;28;20434;-79
2023/11/05 12:01:10;;;;;;;3.40;3.20;;;22.10;60.30;;;;;;4983643;28;20454;-79
2023/11/05 12:03:48;;;;;;;3.73;3.33;;;22.20;60.20;;;;;;4967817;28;20557;-79
2023/11/05 12:06:16;;;;;;;3.70;3.33;;;22.10;59.90;;;;;;4987650;28;20457;-79
2023/11/05 12:08:46;;;;;;;7.37;3.30;;;22.20;60.10;;;;;;4974125;28;20486;-74
2023/11/05 12:11:16;;;;;;;3.30;3.00;;;22.20;59.80;;;;;;4968091;28;20454;-74
2023/11/05 12:13:46;;;;;;;3.10;2.83;;;22.20;59.70;;;;;;4974530;28;20457;-77
2023/11/05 12:16:16;;;;;;;3.00;2.80;;;22.10;59.80;;;;;;4983681;28;20948;-77
2023/11/05 12:18:45;;;;;;;3.37;3.17;;;22.10;60.20;;;;;;4982546;28;20442;-78
2023/11/05 12:21:13;;;;;;;3.73;3.43;;;22.30;60.00;;;;;;4989096;28;20446;-77
2023/11/05 12:23:42;;;;;;;3.50;3.07;;;22.30;59.60;;;;;;4973325;28;20478;-77
2023/11/05 12:26:10;;;;;;;3.60;3.30;;;22.20;59.50;;;;;;4975393;28;20476;-78
2023/11/05 12:28:39;;;;;;;4.43;3.53;;;22.10;59.50;;;;;;4972488;28;20442;-78
2023/11/05 12:31:10;;;;;;;3.43;3.13;;;22.10;59.60;;;;;;4969531;28;20505;-77
2023/11/05 12:33:38;;;;;;;3.63;3.33;;;22.00;59.60;;;;;;4969886;28;20562;-77
2023/11/05 12:36:08;;;;;;;3.73;3.43;;;21.90;59.70;;;;;;4975892;28;20473;-77
2023/11/05 12:38:36;;;;;;;3.47;3.20;;;21.80;59.80;;;;;;4978315;28;20449;-76
2023/11/05 12:41:04;;;;;;;3.73;3.33;;;21.80;60.00;;;;;;4975374;28;20482;-77
2023/11/05 12:43:32;;;;;;;3.63;3.33;;;21.70;60.10;;;;;;4976454;28;20469;-77
2023/11/05 12:46:01;;;;;;;6.83;5.03;;;21.70;60.20;;;;;;4986749;28;20445;-78
2023/11/05 12:48:31;;;;;;;9.30;5.67;;;21.10;58.60;;;;;;4976465;28;20477;-77
2023/11/05 12:51:01;;;;;;;8.27;5.90;;;20.00;61.40;;;;;;4971857;28;20505;-76
2023/11/05 12:53:31;;;;;;;9.70;5.13;;;19.40;63.10;;;;;;4979047;28;20561;-77